sensor_id;sensor_type;location;lat;lon;timestamp;P1;durP1;ratioP1;P2;durP2;ratioP2
42944;SDS011;28584;42.636;23.294;2022-08-01T00:02:24;4.55;;;2.42;;
42944;SDS011;28584;42.636;23.294;2022-08-01T00:04:49;3.05;;;2.15;;
42944;SDS011;28584;42.636;23.294;2022-08-01T00:07:15;3.15;;;1.75;;
42944;SDS011;28584;42.636;23.294;2022-08-01T00:09:40;2.83;;;2.38;;
42944;SDS011;28584;42.636;23.294;2022-08-01T00:12:06;3.72;;;2.17;;
42944;SDS011;28584;42.636;23.294;2022-08-01T00:14:31;2.00;;;1.80;;
42944;SDS011;28584;42.636;23.294;2022-08-01T00:16:57;4.10;;;2.13;;
42944;SDS011;28584;42.636;23.294;2022-08-01T00:19:22;5.43;;;1.65;;
42944;SDS011;28584;42.636;23.294;2022-08-01T00:21:48;5.15;;;2.10;;
42944;SDS011;28584;42.636;23.294;2022-08-01T00:24:13;2.33;;;1.88;;
42944;SDS011;28584;42.636;23.294;2022-08-01T00:26:39;3.28;;;1.70;;
42944;SDS011;28584;42.636;23.294;2022-08-01T00:29:04;2.35;;;1.90;;
42944;SDS011;28584;42.636;23.294;2022-08-01T00:31:29;1.70;;;1.60;;
42944;SDS011;28584;42.636;23.294;2022-08-01T00:33:55;1.85;;;1.70;;
42944;SDS011;28584;42.636;23.294;2022-08-01T00:36:20;2.53;;;1.60;;
42944;SDS011;28584;42.636;23.294;2022-08-01T00:38:46;3.22;;;1.92;;
42944;SDS011;28584;42.636;23.294;2022-08-01T00:41:11;2.78;;;1.80;;
42944;SDS011;28584;42.636;23.294;2022-08-01T00:43:36;1.88;;;1.65;;
42944;SDS011;28584;42.636;23.294;2022-08-01T00:46:02;6.78;;;2.10;;
42944;SDS011;28584;42.636;23.294;2022-08-01T00:48:27;4.00;;;1.70;;
42944;SDS011;28584;42.636;23.294;2022-08-01T00:50:53;2.58;;;2.08;;
42944;SDS011;28584;42.636;23.294;2022-08-01T00:53:18;2.60;;;1.60;;
42944;SDS011;28584;42.636;23.294;2022-08-01T00:55:44;1.88;;;1.67;;
42944;SDS011;28584;42.636;23.294;2022-08-01T00:58:09;2.20;;;1.95;;
42944;SDS011;28584;42.636;23.294;2022-08-01T01:00:35;2.97;;;1.63;;
42944;SDS011;28584;42.636;23.294;2022-08-01T01:03:01;4.18;;;1.55;;
42944;SDS011;28584;42.636;23.294;2022-08-01T01:05:27;1.92;;;1.67;;
42944;SDS011;28584;42.636;23.294;2022-08-01T01:07:59;2.00;;;1.85;;
42944;SDS011;28584;42.636;23.294;2022-08-01T01:10:36;2.10;;;2.00;;
42944;SDS011;28584;42.636;23.294;2022-08-01T01:13:23;2.65;;;1.70;;
42944;SDS011;28584;42.636;23.294;2022-08-01T01:15:55;6.78;;;1.95;;
42944;SDS011;28584;42.636;23.294;2022-08-01T01:18:33;3.33;;;1.70;;
42944;SDS011;28584;42.636;23.294;2022-08-01T01:31:48;2.00;;;1.90;;
42944;SDS011;28584;42.636;23.294;2022-08-01T01:34:19;2.88;;;1.67;;
42944;SDS011;28584;42.636;23.294;2022-08-01T01:36:47;2.83;;;1.52;;
42944;SDS011;28584;42.636;23.294;2022-08-01T01:39:15;1.92;;;1.63;;
42944;SDS011;28584;42.636;23.294;2022-08-01T01:41:42;2.00;;;1.73;;
42944;SDS011;28584;42.636;23.294;2022-08-01T01:44:09;1.83;;;1.60;;
42944;SDS011;28584;42.636;23.294;2022-08-01T01:46:36;3.90;;;1.90;;
42944;SDS011;28584;42.636;23.294;2022-08-01T01:49:03;1.77;;;1.67;;
42944;SDS011;28584;42.636;23.294;2022-08-01T01:51:29;1.77;;;1.67;;
42944;SDS011;28584;42.636;23.294;2022-08-01T01:53:56;2.67;;;1.67;;
42944;SDS011;28584;42.636;23.294;2022-08-01T01:56:24;1.52;;;1.42;;
42944;SDS011;28584;42.636;23.294;2022-08-01T01:58:53;3.60;;;1.85;;
42944;SDS011;28584;42.636;23.294;2022-08-01T02:01:21;3.55;;;1.77;;
42944;SDS011;28584;42.636;23.294;2022-08-01T02:03:49;1.92;;;1.83;;
42944;SDS011;28584;42.636;23.294;2022-08-01T02:06:16;1.83;;;1.73;;
42944;SDS011;28584;42.636;23.294;2022-08-01T02:08:42;2.85;;;1.70;;
42944;SDS011;28584;42.636;23.294;2022-08-01T02:11:08;1.88;;;1.55;;
42944;SDS011;28584;42.636;23.294;2022-08-01T02:13:43;2.30;;;1.80;;
42944;SDS011;28584;42.636;23.294;2022-08-01T02:16:16;3.28;;;1.90;;
42944;SDS011;28584;42.636;23.294;2022-08-01T02:18:43;4.38;;;1.88;;
42944;SDS011;28584;42.636;23.294;2022-08-01T02:21:09;1.85;;;1.75;;
42944;SDS011;28584;42.636;23.294;2022-08-01T02:23:38;4.60;;;1.75;;
42944;SDS011;28584;42.636;23.294;2022-08-01T02:26:09;1.77;;;1.67;;
42944;SDS011;28584;42.636;23.294;2022-08-01T02:28:46;2.95;;;1.70;;
42944;SDS011;28584;42.636;23.294;2022-08-01T02:31:16;1.90;;;1.70;;
42944;SDS011;28584;42.636;23.294;2022-08-01T02:33:44;2.05;;;1.85;;
42944;SDS011;28584;42.636;23.294;2022-08-01T02:36:25;3.30;;;1.83;;
42944;SDS011;28584;42.636;23.294;2022-08-01T02:38:52;2.63;;;1.73;;
42944;SDS011;28584;42.636;23.294;2022-08-01T02:41:20;2.20;;;2.00;;
42944;SDS011;28584;42.636;23.294;2022-08-01T02:43:48;3.53;;;1.88;;
42944;SDS011;28584;42.636;23.294;2022-08-01T02:46:17;2.58;;;1.70;;
42944;SDS011;28584;42.636;23.294;2022-08-01T02:48:47;2.05;;;1.85;;
42944;SDS011;28584;42.636;23.294;2022-08-01T02:51:17;3.63;;;1.85;;
42944;SDS011;28584;42.636;23.294;2022-08-01T02:53:46;2.38;;;1.77;;
42944;SDS011;28584;42.636;23.294;2022-08-01T02:56:13;2.70;;;1.95;;
42944;SDS011;28584;42.636;23.294;2022-08-01T02:58:40;6.07;;;2.20;;
42944;SDS011;28584;42.636;23.294;2022-08-01T03:01:08;4.50;;;1.70;;
42944;SDS011;28584;42.636;23.294;2022-08-01T03:03:36;2.55;;;1.80;;
42944;SDS011;28584;42.636;23.294;2022-08-01T03:06:02;2.28;;;2.00;;
42944;SDS011;28584;42.636;23.294;2022-08-01T03:08:29;2.03;;;1.92;;
42944;SDS011;28584;42.636;23.294;2022-08-01T03:10:56;3.17;;;1.90;;
42944;SDS011;28584;42.636;23.294;2022-08-01T03:13:24;2.60;;;2.03;;
42944;SDS011;28584;42.636;23.294;2022-08-01T03:15:52;3.50;;;1.92;;
42944;SDS011;28584;42.636;23.294;2022-08-01T03:18:20;2.83;;;1.98;;
42944;SDS011;28584;42.636;23.294;2022-08-01T03:20:49;2.58;;;2.10;;
42944;SDS011;28584;42.636;23.294;2022-08-01T03:23:16;4.85;;;2.15;;
42944;SDS011;28584;42.636;23.294;2022-08-01T03:25:43;3.63;;;1.75;;
42944;SDS011;28584;42.636;23.294;2022-08-01T03:28:12;2.40;;;2.20;;
42944;SDS011;28584;42.636;23.294;2022-08-01T03:30:38;2.50;;;1.98;;
42944;SDS011;28584;42.636;23.294;2022-08-01T03:33:05;3.75;;;2.20;;
42944;SDS011;28584;42.636;23.294;2022-08-01T03:35:36;3.97;;;1.95;;
42944;SDS011;28584;42.636;23.294;2022-08-01T03:38:08;2.53;;;2.08;;
42944;SDS011;28584;42.636;23.294;2022-08-01T03:43:55;2.78;;;2.30;;
42944;SDS011;28584;42.636;23.294;2022-08-01T03:46:29;5.05;;;2.50;;
42944;SDS011;28584;42.636;23.294;2022-08-01T03:49:03;2.55;;;2.33;;
42944;SDS011;28584;42.636;23.294;2022-08-01T03:51:33;3.38;;;2.80;;
42944;SDS011;28584;42.636;23.294;2022-08-01T03:53:59;4.25;;;2.60;;
42944;SDS011;28584;42.636;23.294;2022-08-01T03:59:29;3.40;;;3.05;;
42944;SDS011;28584;42.636;23.294;2022-08-01T04:01:55;2.60;;;2.40;;
42944;SDS011;28584;42.636;23.294;2022-08-01T04:04:22;7.80;;;2.10;;
42944;SDS011;28584;42.636;23.294;2022-08-01T04:06:48;2.75;;;2.35;;
42944;SDS011;28584;42.636;23.294;2022-08-01T04:09:18;2.88;;;2.05;;
42944;SDS011;28584;42.636;23.294;2022-08-01T04:11:44;2.47;;;2.28;;
42944;SDS011;28584;42.636;23.294;2022-08-01T04:14:10;2.67;;;2.30;;
42944;SDS011;28584;42.636;23.294;2022-08-01T04:16:35;2.45;;;2.08;;
42944;SDS011;28584;42.636;23.294;2022-08-01T04:19:02;3.00;;;2.13;;
42944;SDS011;28584;42.636;23.294;2022-08-01T04:21:28;4.45;;;2.45;;
42944;SDS011;28584;42.636;23.294;2022-08-01T04:24:05;3.42;;;2.05;;
42944;SDS011;28584;42.636;23.294;2022-08-01T04:26:43;3.47;;;2.13;;
42944;SDS011;28584;42.636;23.294;2022-08-01T04:29:10;2.50;;;1.88;;
42944;SDS011;28584;42.636;23.294;2022-08-01T04:31:39;4.15;;;2.10;;
42944;SDS011;28584;42.636;23.294;2022-08-01T04:34:09;2.67;;;2.03;;
42944;SDS011;28584;42.636;23.294;2022-08-01T04:36:37;3.67;;;1.83;;
42944;SDS011;28584;42.636;23.294;2022-08-01T04:39:04;2.88;;;2.17;;
42944;SDS011;28584;42.636;23.294;2022-08-01T04:41:30;3.00;;;1.95;;
42944;SDS011;28584;42.636;23.294;2022-08-01T04:43:57;3.42;;;2.08;;
42944;SDS011;28584;42.636;23.294;2022-08-01T04:46:27;2.53;;;2.33;;
42944;SDS011;28584;42.636;23.294;2022-08-01T04:48:54;3.67;;;2.50;;
42944;SDS011;28584;42.636;23.294;2022-08-01T04:51:21;2.30;;;2.05;;
42944;SDS011;28584;42.636;23.294;2022-08-01T04:53:47;4.35;;;2.20;;
42944;SDS011;28584;42.636;23.294;2022-08-01T04:56:13;2.67;;;2.10;;
42944;SDS011;28584;42.636;23.294;2022-08-01T04:58:40;2.33;;;2.13;;
42944;SDS011;28584;42.636;23.294;2022-08-01T05:01:06;3.05;;;2.05;;
42944;SDS011;28584;42.636;23.294;2022-08-01T05:03:32;3.03;;;2.10;;
42944;SDS011;28584;42.636;23.294;2022-08-01T05:05:58;2.55;;;2.35;;
42944;SDS011;28584;42.636;23.294;2022-08-01T05:08:24;3.60;;;2.25;;
42944;SDS011;28584;42.636;23.294;2022-08-01T05:10:49;2.45;;;2.05;;
42944;SDS011;28584;42.636;23.294;2022-08-01T05:13:15;3.30;;;2.13;;
42944;SDS011;28584;42.636;23.294;2022-08-01T05:15:40;4.82;;;2.30;;
42944;SDS011;28584;42.636;23.294;2022-08-01T05:18:06;2.38;;;2.17;;
42944;SDS011;28584;42.636;23.294;2022-08-01T05:20:32;2.92;;;2.15;;
42944;SDS011;28584;42.636;23.294;2022-08-01T05:22:57;2.58;;;2.35;;
42944;SDS011;28584;42.636;23.294;2022-08-01T05:25:23;2.08;;;1.98;;
42944;SDS011;28584;42.636;23.294;2022-08-01T05:27:48;3.45;;;2.00;;
42944;SDS011;28584;42.636;23.294;2022-08-01T05:30:14;3.58;;;2.22;;
42944;SDS011;28584;42.636;23.294;2022-08-01T05:32:39;3.35;;;2.40;;
42944;SDS011;28584;42.636;23.294;2022-08-01T05:35:05;6.22;;;2.47;;
42944;SDS011;28584;42.636;23.294;2022-08-01T05:37:32;5.80;;;2.35;;
42944;SDS011;28584;42.636;23.294;2022-08-01T05:39:57;4.18;;;2.03;;
42944;SDS011;28584;42.636;23.294;2022-08-01T05:42:23;3.30;;;2.00;;
42944;SDS011;28584;42.636;23.294;2022-08-01T05:44:48;2.85;;;1.80;;
42944;SDS011;28584;42.636;23.294;2022-08-01T05:47:15;3.47;;;2.38;;
42944;SDS011;28584;42.636;23.294;2022-08-01T05:49:42;2.28;;;1.92;;
42944;SDS011;28584;42.636;23.294;2022-08-01T05:52:08;3.80;;;2.20;;
42944;SDS011;28584;42.636;23.294;2022-08-01T05:54:34;3.00;;;2.72;;
42944;SDS011;28584;42.636;23.294;2022-08-01T05:56:59;6.88;;;2.80;;
42944;SDS011;28584;42.636;23.294;2022-08-01T05:59:26;3.42;;;2.25;;
42944;SDS011;28584;42.636;23.294;2022-08-01T06:01:53;5.28;;;2.45;;
42944;SDS011;28584;42.636;23.294;2022-08-01T06:04:18;2.60;;;2.28;;
42944;SDS011;28584;42.636;23.294;2022-08-01T06:06:44;2.92;;;2.50;;
42944;SDS011;28584;42.636;23.294;2022-08-01T06:09:09;3.28;;;2.40;;
42944;SDS011;28584;42.636;23.294;2022-08-01T06:11:34;4.22;;;2.10;;
42944;SDS011;28584;42.636;23.294;2022-08-01T06:14:00;2.28;;;1.92;;
42944;SDS011;28584;42.636;23.294;2022-08-01T06:16:25;3.33;;;2.17;;
42944;SDS011;28584;42.636;23.294;2022-08-01T06:18:51;3.53;;;2.13;;
42944;SDS011;28584;42.636;23.294;2022-08-01T06:21:16;5.43;;;2.10;;
42944;SDS011;28584;42.636;23.294;2022-08-01T06:23:41;3.53;;;2.30;;
42944;SDS011;28584;42.636;23.294;2022-08-01T06:26:07;3.97;;;2.42;;
42944;SDS011;28584;42.636;23.294;2022-08-01T06:28:33;4.25;;;3.00;;
42944;SDS011;28584;42.636;23.294;2022-08-01T06:30:58;4.53;;;2.20;;
42944;SDS011;28584;42.636;23.294;2022-08-01T06:33:24;3.60;;;2.30;;
42944;SDS011;28584;42.636;23.294;2022-08-01T06:35:50;3.83;;;2.40;;
42944;SDS011;28584;42.636;23.294;2022-08-01T06:38:15;2.58;;;1.95;;
42944;SDS011;28584;42.636;23.294;2022-08-01T06:40:41;3.75;;;2.15;;
42944;SDS011;28584;42.636;23.294;2022-08-01T06:43:06;4.18;;;2.50;;
42944;SDS011;28584;42.636;23.294;2022-08-01T06:45:32;2.70;;;2.50;;
42944;SDS011;28584;42.636;23.294;2022-08-01T06:47:58;4.22;;;2.47;;
42944;SDS011;28584;42.636;23.294;2022-08-01T06:50:23;2.45;;;2.15;;
42944;SDS011;28584;42.636;23.294;2022-08-01T06:52:49;3.40;;;2.20;;
42944;SDS011;28584;42.636;23.294;2022-08-01T06:55:14;3.17;;;2.22;;
42944;SDS011;28584;42.636;23.294;2022-08-01T06:57:47;4.85;;;2.38;;
42944;SDS011;28584;42.636;23.294;2022-08-01T07:00:13;3.70;;;2.30;;
42944;SDS011;28584;42.636;23.294;2022-08-01T07:02:41;3.75;;;2.22;;
42944;SDS011;28584;42.636;23.294;2022-08-01T07:05:06;4.70;;;2.53;;
42944;SDS011;28584;42.636;23.294;2022-08-01T07:07:32;2.58;;;2.38;;
42944;SDS011;28584;42.636;23.294;2022-08-01T07:09:57;3.05;;;2.67;;
42944;SDS011;28584;42.636;23.294;2022-08-01T07:12:23;3.92;;;2.42;;
42944;SDS011;28584;42.636;23.294;2022-08-01T07:14:48;4.72;;;2.40;;
42944;SDS011;28584;42.636;23.294;2022-08-01T07:17:13;3.00;;;2.38;;
42944;SDS011;28584;42.636;23.294;2022-08-01T07:19:39;2.83;;;2.30;;
42944;SDS011;28584;42.636;23.294;2022-08-01T07:22:04;2.85;;;2.55;;
42944;SDS011;28584;42.636;23.294;2022-08-01T07:24:30;2.55;;;2.17;;
42944;SDS011;28584;42.636;23.294;2022-08-01T07:26:56;3.60;;;2.70;;
42944;SDS011;28584;42.636;23.294;2022-08-01T07:29:25;2.40;;;2.20;;
42944;SDS011;28584;42.636;23.294;2022-08-01T07:31:52;2.75;;;2.55;;
42944;SDS011;28584;42.636;23.294;2022-08-01T07:34:18;2.78;;;2.53;;
42944;SDS011;28584;42.636;23.294;2022-08-01T07:36:43;7.90;;;2.63;;
42944;SDS011;28584;42.636;23.294;2022-08-01T07:39:09;4.35;;;3.00;;
42944;SDS011;28584;42.636;23.294;2022-08-01T07:41:34;3.22;;;2.63;;
42944;SDS011;28584;42.636;23.294;2022-08-01T07:44:00;3.13;;;2.50;;
42944;SDS011;28584;42.636;23.294;2022-08-01T07:46:25;5.80;;;2.88;;
42944;SDS011;28584;42.636;23.294;2022-08-01T07:48:51;9.95;;;2.83;;
42944;SDS011;28584;42.636;23.294;2022-08-01T07:51:16;4.32;;;2.38;;
42944;SDS011;28584;42.636;23.294;2022-08-01T07:53:41;4.35;;;2.47;;
42944;SDS011;28584;42.636;23.294;2022-08-01T07:56:07;5.07;;;2.47;;
42944;SDS011;28584;42.636;23.294;2022-08-01T07:58:33;4.15;;;2.70;;
42944;SDS011;28584;42.636;23.294;2022-08-01T08:00:58;9.25;;;3.13;;
42944;SDS011;28584;42.636;23.294;2022-08-01T08:03:24;3.85;;;2.83;;
42944;SDS011;28584;42.636;23.294;2022-08-01T08:05:49;3.15;;;2.08;;
42944;SDS011;28584;42.636;23.294;2022-08-01T08:08:15;4.65;;;2.75;;
42944;SDS011;28584;42.636;23.294;2022-08-01T08:10:42;2.88;;;2.58;;
42944;SDS011;28584;42.636;23.294;2022-08-01T08:13:07;4.25;;;2.53;;
42944;SDS011;28584;42.636;23.294;2022-08-01T08:15:33;2.65;;;2.45;;
42944;SDS011;28584;42.636;23.294;2022-08-01T08:17:58;3.15;;;2.75;;
42944;SDS011;28584;42.636;23.294;2022-08-01T08:20:24;4.38;;;2.60;;
42944;SDS011;28584;42.636;23.294;2022-08-01T08:22:54;3.55;;;2.53;;
42944;SDS011;28584;42.636;23.294;2022-08-01T08:25:20;6.18;;;2.70;;
42944;SDS011;28584;42.636;23.294;2022-08-01T08:27:46;4.90;;;2.60;;
42944;SDS011;28584;42.636;23.294;2022-08-01T08:30:12;2.40;;;2.20;;
42944;SDS011;28584;42.636;23.294;2022-08-01T08:32:38;3.83;;;2.35;;
42944;SDS011;28584;42.636;23.294;2022-08-01T08:35:04;3.47;;;2.53;;
42944;SDS011;28584;42.636;23.294;2022-08-01T08:37:31;4.20;;;2.65;;
42944;SDS011;28584;42.636;23.294;2022-08-01T08:39:56;4.40;;;2.28;;
42944;SDS011;28584;42.636;23.294;2022-08-01T08:42:22;5.03;;;2.83;;
42944;SDS011;28584;42.636;23.294;2022-08-01T08:44:47;6.75;;;2.55;;
42944;SDS011;28584;42.636;23.294;2022-08-01T08:47:13;3.47;;;2.45;;
42944;SDS011;28584;42.636;23.294;2022-08-01T08:49:39;3.72;;;2.58;;
42944;SDS011;28584;42.636;23.294;2022-08-01T08:52:08;3.28;;;2.65;;
42944;SDS011;28584;42.636;23.294;2022-08-01T08:54:34;4.32;;;2.42;;
42944;SDS011;28584;42.636;23.294;2022-08-01T08:57:01;4.13;;;2.20;;
42944;SDS011;28584;42.636;23.294;2022-08-01T08:59:27;4.30;;;2.20;;
42944;SDS011;28584;42.636;23.294;2022-08-01T09:01:53;2.58;;;2.38;;
42944;SDS011;28584;42.636;23.294;2022-08-01T09:04:22;6.80;;;2.00;;
42944;SDS011;28584;42.636;23.294;2022-08-01T09:06:48;5.10;;;2.03;;
42944;SDS011;28584;42.636;23.294;2022-08-01T09:09:14;2.38;;;2.17;;
42944;SDS011;28584;42.636;23.294;2022-08-01T09:11:40;5.43;;;2.42;;
42944;SDS011;28584;42.636;23.294;2022-08-01T09:16:40;2.67;;;2.47;;
42944;SDS011;28584;42.636;23.294;2022-08-01T09:19:07;2.72;;;2.10;;
42944;SDS011;28584;42.636;23.294;2022-08-01T09:21:37;2.67;;;2.00;;
42944;SDS011;28584;42.636;23.294;2022-08-01T09:24:03;2.70;;;2.50;;
42944;SDS011;28584;42.636;23.294;2022-08-01T09:26:32;3.42;;;2.40;;
42944;SDS011;28584;42.636;23.294;2022-08-01T09:29:00;2.75;;;2.10;;
42944;SDS011;28584;42.636;23.294;2022-08-01T09:31:28;5.30;;;2.65;;
42944;SDS011;28584;42.636;23.294;2022-08-01T09:33:58;2.08;;;1.98;;
42944;SDS011;28584;42.636;23.294;2022-08-01T09:39:16;4.07;;;2.50;;
42944;SDS011;28584;42.636;23.294;2022-08-01T09:41:43;4.75;;;2.58;;
42944;SDS011;28584;42.636;23.294;2022-08-01T09:44:09;2.97;;;2.53;;
42944;SDS011;28584;42.636;23.294;2022-08-01T09:46:34;2.72;;;2.53;;
42944;SDS011;28584;42.636;23.294;2022-08-01T09:49:02;2.78;;;2.42;;
42944;SDS011;28584;42.636;23.294;2022-08-01T09:51:35;6.82;;;2.50;;
42944;SDS011;28584;42.636;23.294;2022-08-01T09:54:03;5.15;;;2.70;;
42944;SDS011;28584;42.636;23.294;2022-08-01T09:56:37;2.45;;;2.25;;
42944;SDS011;28584;42.636;23.294;2022-08-01T09:59:03;2.60;;;2.30;;
42944;SDS011;28584;42.636;23.294;2022-08-01T10:01:41;3.75;;;2.50;;
42944;SDS011;28584;42.636;23.294;2022-08-01T10:06:42;3.50;;;2.75;;
42944;SDS011;28584;42.636;23.294;2022-08-01T10:09:10;5.13;;;2.80;;
42944;SDS011;28584;42.636;23.294;2022-08-01T10:11:37;4.93;;;2.67;;
42944;SDS011;28584;42.636;23.294;2022-08-01T10:14:04;4.03;;;2.75;;
42944;SDS011;28584;42.636;23.294;2022-08-01T10:16:30;2.90;;;2.28;;
42944;SDS011;28584;42.636;23.294;2022-08-01T10:18:58;3.35;;;2.72;;
42944;SDS011;28584;42.636;23.294;2022-08-01T10:21:26;6.53;;;2.50;;
42944;SDS011;28584;42.636;23.294;2022-08-01T10:23:53;3.55;;;2.80;;
42944;SDS011;28584;42.636;23.294;2022-08-01T10:26:21;12.93;;;2.80;;
42944;SDS011;28584;42.636;23.294;2022-08-01T10:28:49;2.80;;;2.60;;
42944;SDS011;28584;42.636;23.294;2022-08-01T10:31:16;4.07;;;1.90;;
42944;SDS011;28584;42.636;23.294;2022-08-01T10:33:43;4.57;;;2.42;;
42944;SDS011;28584;42.636;23.294;2022-08-01T10:36:09;23.77;;;3.58;;
42944;SDS011;28584;42.636;23.294;2022-08-01T10:38:35;5.10;;;2.40;;
42944;SDS011;28584;42.636;23.294;2022-08-01T10:41:02;5.13;;;2.13;;
42944;SDS011;28584;42.636;23.294;2022-08-01T10:43:29;2.80;;;2.13;;
42944;SDS011;28584;42.636;23.294;2022-08-01T10:45:55;4.20;;;2.00;;
42944;SDS011;28584;42.636;23.294;2022-08-01T10:48:39;4.60;;;2.10;;
42944;SDS011;28584;42.636;23.294;2022-08-01T10:51:25;3.15;;;2.17;;
42944;SDS011;28584;42.636;23.294;2022-08-01T10:53:52;3.00;;;2.08;;
42944;SDS011;28584;42.636;23.294;2022-08-01T10:56:18;3.15;;;2.10;;
42944;SDS011;28584;42.636;23.294;2022-08-01T10:58:46;2.15;;;1.90;;
42944;SDS011;28584;42.636;23.294;2022-08-01T11:04:03;2.50;;;2.10;;
42944;SDS011;28584;42.636;23.294;2022-08-01T11:06:40;3.85;;;2.00;;
42944;SDS011;28584;42.636;23.294;2022-08-01T11:11:56;4.70;;;2.10;;
42944;SDS011;28584;42.636;23.294;2022-08-01T11:14:31;2.92;;;2.00;;
42944;SDS011;28584;42.636;23.294;2022-08-01T11:17:44;2.78;;;2.30;;
42944;SDS011;28584;42.636;23.294;2022-08-01T11:22:38;2.67;;;2.38;;
42944;SDS011;28584;42.636;23.294;2022-08-01T11:25:23;4.03;;;1.85;;
42944;SDS011;28584;42.636;23.294;2022-08-01T11:27:49;2.95;;;2.20;;
42944;SDS011;28584;42.636;23.294;2022-08-01T11:30:50;2.53;;;2.25;;
42944;SDS011;28584;42.636;23.294;2022-08-01T11:33:16;4.15;;;2.17;;
42944;SDS011;28584;42.636;23.294;2022-08-01T11:41:23;3.45;;;1.90;;
42944;SDS011;28584;42.636;23.294;2022-08-01T11:44:03;5.22;;;2.45;;
42944;SDS011;28584;42.636;23.294;2022-08-01T11:51:53;3.50;;;2.70;;
42944;SDS011;28584;42.636;23.294;2022-08-01T11:54:28;4.28;;;2.10;;
42944;SDS011;28584;42.636;23.294;2022-08-01T11:57:00;2.92;;;2.30;;
42944;SDS011;28584;42.636;23.294;2022-08-01T11:59:28;4.20;;;2.33;;
42944;SDS011;28584;42.636;23.294;2022-08-01T12:02:01;2.85;;;2.65;;
42944;SDS011;28584;42.636;23.294;2022-08-01T12:04:43;4.65;;;2.80;;
42944;SDS011;28584;42.636;23.294;2022-08-01T12:07:16;4.55;;;2.92;;
42944;SDS011;28584;42.636;23.294;2022-08-01T12:09:42;5.72;;;2.40;;
42944;SDS011;28584;42.636;23.294;2022-08-01T12:12:09;3.72;;;2.55;;
42944;SDS011;28584;42.636;23.294;2022-08-01T12:14:35;4.97;;;3.00;;
42944;SDS011;28584;42.636;23.294;2022-08-01T12:17:00;4.32;;;2.90;;
42944;SDS011;28584;42.636;23.294;2022-08-01T12:19:26;4.82;;;2.60;;
42944;SDS011;28584;42.636;23.294;2022-08-01T12:24:33;3.72;;;2.72;;
42944;SDS011;28584;42.636;23.294;2022-08-01T12:26:59;5.00;;;2.88;;
42944;SDS011;28584;42.636;23.294;2022-08-01T12:32:00;4.15;;;2.60;;
42944;SDS011;28584;42.636;23.294;2022-08-01T12:34:27;3.45;;;3.03;;
42944;SDS011;28584;42.636;23.294;2022-08-01T12:36:57;4.93;;;2.63;;
42944;SDS011;28584;42.636;23.294;2022-08-01T12:39:33;3.42;;;2.95;;
42944;SDS011;28584;42.636;23.294;2022-08-01T12:41:59;4.05;;;2.72;;
42944;SDS011;28584;42.636;23.294;2022-08-01T12:44:25;6.63;;;3.05;;
42944;SDS011;28584;42.636;23.294;2022-08-01T12:46:54;4.93;;;2.83;;
42944;SDS011;28584;42.636;23.294;2022-08-01T12:49:21;3.70;;;3.40;;
42944;SDS011;28584;42.636;23.294;2022-08-01T12:51:46;3.75;;;3.17;;
42944;SDS011;28584;42.636;23.294;2022-08-01T12:54:13;5.97;;;3.30;;
42944;SDS011;28584;42.636;23.294;2022-08-01T12:56:38;3.28;;;2.53;;
42944;SDS011;28584;42.636;23.294;2022-08-01T12:59:20;3.70;;;3.05;;
42944;SDS011;28584;42.636;23.294;2022-08-01T13:01:45;4.28;;;2.50;;
42944;SDS011;28584;42.636;23.294;2022-08-01T13:04:12;4.25;;;3.17;;
42944;SDS011;28584;42.636;23.294;2022-08-01T13:06:37;4.03;;;2.72;;
42944;SDS011;28584;42.636;23.294;2022-08-01T13:09:06;3.25;;;2.60;;
42944;SDS011;28584;42.636;23.294;2022-08-01T13:11:38;2.67;;;2.30;;
42944;SDS011;28584;42.636;23.294;2022-08-01T13:14:04;4.38;;;2.50;;
42944;SDS011;28584;42.636;23.294;2022-08-01T13:16:30;2.35;;;2.20;;
42944;SDS011;28584;42.636;23.294;2022-08-01T13:18:56;2.70;;;2.50;;
42944;SDS011;28584;42.636;23.294;2022-08-01T13:21:23;4.00;;;2.92;;
42944;SDS011;28584;42.636;23.294;2022-08-01T13:24:09;4.05;;;2.78;;
42944;SDS011;28584;42.636;23.294;2022-08-01T13:29:15;3.03;;;2.40;;
42944;SDS011;28584;42.636;23.294;2022-08-01T13:31:42;3.50;;;2.28;;
42944;SDS011;28584;42.636;23.294;2022-08-01T13:34:08;4.40;;;2.50;;
42944;SDS011;28584;42.636;23.294;2022-08-01T13:36:34;2.70;;;2.50;;
42944;SDS011;28584;42.636;23.294;2022-08-01T13:39:00;4.40;;;2.65;;
42944;SDS011;28584;42.636;23.294;2022-08-01T13:41:45;3.78;;;2.75;;
42944;SDS011;28584;42.636;23.294;2022-08-01T13:44:11;2.60;;;2.40;;
42944;SDS011;28584;42.636;23.294;2022-08-01T13:46:37;2.58;;;2.38;;
42944;SDS011;28584;42.636;23.294;2022-08-01T13:49:04;4.43;;;2.50;;
42944;SDS011;28584;42.636;23.294;2022-08-01T13:51:30;2.55;;;2.35;;
42944;SDS011;28584;42.636;23.294;2022-08-01T13:53:56;3.33;;;2.50;;
42944;SDS011;28584;42.636;23.294;2022-08-01T13:56:22;3.95;;;2.50;;
42944;SDS011;28584;42.636;23.294;2022-08-01T13:58:48;2.60;;;2.40;;
42944;SDS011;28584;42.636;23.294;2022-08-01T14:01:13;2.47;;;2.28;;
42944;SDS011;28584;42.636;23.294;2022-08-01T14:03:39;3.65;;;2.33;;
42944;SDS011;28584;42.636;23.294;2022-08-01T14:06:17;2.53;;;2.33;;
42944;SDS011;28584;42.636;23.294;2022-08-01T14:08:43;2.17;;;2.08;;
42944;SDS011;28584;42.636;23.294;2022-08-01T14:11:09;2.88;;;2.38;;
42944;SDS011;28584;42.636;23.294;2022-08-01T14:13:34;2.28;;;2.08;;
42944;SDS011;28584;42.636;23.294;2022-08-01T14:16:03;2.70;;;2.50;;
42944;SDS011;28584;42.636;23.294;2022-08-01T14:18:29;4.50;;;2.30;;
42944;SDS011;28584;42.636;23.294;2022-08-01T14:20:54;4.03;;;2.13;;
42944;SDS011;28584;42.636;23.294;2022-08-01T14:23:20;5.90;;;2.42;;
42944;SDS011;28584;42.636;23.294;2022-08-01T14:25:45;3.50;;;2.08;;
42944;SDS011;28584;42.636;23.294;2022-08-01T14:28:11;2.72;;;2.53;;
42944;SDS011;28584;42.636;23.294;2022-08-01T14:30:36;2.40;;;2.30;;
42944;SDS011;28584;42.636;23.294;2022-08-01T14:33:02;4.40;;;2.63;;
42944;SDS011;28584;42.636;23.294;2022-08-01T14:35:28;3.28;;;2.20;;
42944;SDS011;28584;42.636;23.294;2022-08-01T14:37:53;4.70;;;2.30;;
42944;SDS011;28584;42.636;23.294;2022-08-01T14:40:19;3.30;;;2.55;;
42944;SDS011;28584;42.636;23.294;2022-08-01T14:42:44;3.30;;;2.47;;
42944;SDS011;28584;42.636;23.294;2022-08-01T14:45:10;3.20;;;2.30;;
42944;SDS011;28584;42.636;23.294;2022-08-01T14:47:37;2.92;;;2.60;;
42944;SDS011;28584;42.636;23.294;2022-08-01T14:50:05;2.20;;;2.10;;
42944;SDS011;28584;42.636;23.294;2022-08-01T14:52:32;3.25;;;2.00;;
42944;SDS011;28584;42.636;23.294;2022-08-01T14:54:59;2.42;;;2.22;;
42944;SDS011;28584;42.636;23.294;2022-08-01T14:57:25;2.75;;;2.03;;
42944;SDS011;28584;42.636;23.294;2022-08-01T14:59:51;4.22;;;2.20;;
42944;SDS011;28584;42.636;23.294;2022-08-01T15:02:16;3.40;;;2.28;;
42944;SDS011;28584;42.636;23.294;2022-08-01T15:04:45;2.13;;;2.03;;
42944;SDS011;28584;42.636;23.294;2022-08-01T15:07:12;3.70;;;1.77;;
42944;SDS011;28584;42.636;23.294;2022-08-01T15:09:38;3.13;;;1.80;;
42944;SDS011;28584;42.636;23.294;2022-08-01T15:12:04;2.08;;;1.80;;
42944;SDS011;28584;42.636;23.294;2022-08-01T15:14:29;2.17;;;2.08;;
42944;SDS011;28584;42.636;23.294;2022-08-01T15:17:17;2.35;;;2.15;;
42944;SDS011;28584;42.636;23.294;2022-08-01T15:19:44;3.47;;;2.25;;
42944;SDS011;28584;42.636;23.294;2022-08-01T15:22:10;2.38;;;2.17;;
42944;SDS011;28584;42.636;23.294;2022-08-01T15:24:35;3.30;;;2.22;;
42944;SDS011;28584;42.636;23.294;2022-08-01T15:27:01;2.30;;;2.08;;
42944;SDS011;28584;42.636;23.294;2022-08-01T15:29:27;2.97;;;2.40;;